Terminal Aerodrome Forecast
Issued by NWS

Home | Current Version | Previous Version | Text Only | Print | Product List | Glossary On
Versions: 1 2 3 4 5 6 7 8 9 10 11 12 13 14 15 16 17 18 19 20
000
FTUS41 KBGM 260500
TAFELM
TAF
KELM 260520Z 2606/2706 24003KT P6SM BKN200
      TEMPO 2608/2612 5SM BR SCT002
     FM261500 24005KT P6SM BKN120
     FM261800 24007KT P6SM BKN060
     FM270000 23002KT P6SM OVC100=

USA.gov is the U.S. government's official web portal to all federal, state and local government web resources and services.